Time;durP1;ratioP1;P1;durP2;ratioP2;P2;SDS_P1;SDS_P2;PMS_P1;PMS_P2;Temp;Humidity;BMP_temperature;BMP_pressure;BME280_temperature;BME280_humidity;BME280_pressure;Samples;Min_cycle;Max_cycle;Signal;HPM_P1;HPM_P2
2022/12/19 00:01:36;;;;;;;35.70;18.70;;;;;;;-5.77;99.05;99444.66;107677;1267;59735;-66
2022/12/19 00:04:09;;;;;;;30.00;16.90;;;;;;;-5.82;98.98;99443.70;107813;1263;59740;-65
2022/12/19 00:06:38;;;;;;;29.40;16.10;;;;;;;-5.86;98.95;99445.12;107794;1263;72011;-66
2022/12/19 00:09:12;;;;;;;31.40;17.50;;;;;;;-5.88;99.19;99445.57;107689;1262;69667;-65
2022/12/19 00:11:42;;;;;;;24.10;14.90;;;;;;;-5.90;99.35;99448.59;107753;1267;69224;-67
2022/12/19 00:14:11;;;;;;;27.50;14.00;;;;;;;-5.93;99.10;99451.42;107704;1267;59735;-64
2022/12/19 00:16:40;;;;;;;28.10;15.50;;;;;;;-5.97;98.90;99450.81;107731;1267;60080;-65
2022/12/19 00:19:10;;;;;;;;;;;;;;;-6.01;98.63;99451.58;107888;1265;71222;-65
2022/12/19 00:21:39;;;;;;;42.10;18.70;;;;;;;-6.06;98.69;99453.83;107946;1267;68394;-65
2022/12/19 00:24:10;;;;;;;34.40;17.50;;;;;;;-6.07;99.71;99452.75;107893;1267;69886;-65
2022/12/19 00:26:49;;;;;;;29.50;16.40;;;;;;;-6.10;99.97;99455.58;107425;1263;668842;-65
2022/12/19 00:29:19;;;;;;;36.10;18.80;;;;;;;-6.15;99.79;99457.14;107960;1266;59724;-65
2022/12/19 00:31:48;;;;;;;45.80;21.60;;;;;;;-6.19;99.97;99459.25;107907;1267;71776;-65
2022/12/19 00:34:17;;;;;;;30.40;15.00;;;;;;;-6.21;100.00;99463.77;107839;1262;69301;-65
2022/12/19 00:36:46;;;;;;;29.90;15.20;;;;;;;-6.25;100.00;99470.96;107887;1267;70248;-65
2022/12/19 00:39:16;;;;;;;24.90;14.50;;;;;;;-6.29;99.78;99472.37;107863;1267;59665;-66
2022/12/19 00:41:46;;;;;;;28.30;14.90;;;;;;;-6.31;99.62;99471.15;107873;1267;59706;-66
2022/12/19 00:44:15;;;;;;;27.20;16.00;;;;;;;-6.33;99.65;99476.54;107847;1266;69526;-66
2022/12/19 00:46:45;;;;;;;26.90;13.60;;;;;;;-6.36;99.66;99477.11;107908;1259;69827;-65
2022/12/19 00:49:21;;;;;;;25.50;13.80;;;;;;;-6.39;99.96;99478.38;107949;1266;69728;-66
2022/12/19 00:51:51;;;;;;;25.30;13.30;;;;;;;-6.41;99.93;99472.39;107866;1267;59761;-65
2022/12/19 00:54:21;;;;;;;30.30;16.90;;;;;;;-6.44;99.67;99474.85;107932;1267;60199;-65
2022/12/19 00:56:51;;;;;;;28.80;13.50;;;;;;;-6.44;99.25;99469.77;107920;1263;69853;-66
2022/12/19 00:59:24;;;;;;;25.00;12.40;;;;;;;-6.45;99.12;99470.76;107907;1267;70023;-65
2022/12/19 01:01:57;;;;;;;22.50;11.80;;;;;;;-6.47;98.99;99469.52;107937;1267;69244;-65
2022/12/19 01:04:31;;;;;;;22.00;12.10;;;;;;;-6.49;98.82;99469.96;107808;1267;59806;-65
2022/12/19 01:07:11;;;;;;;25.70;12.30;;;;;;;-6.52;98.61;99470.90;107917;1267;59655;-66
2022/12/19 01:09:41;;;;;;;28.40;15.10;;;;;;;-6.52;98.70;99467.68;107849;1266;70647;-66
2022/12/19 01:15:02;;;;;;;36.00;15.80;;;;;;;-6.54;98.62;99456.95;107974;1266;69236;-66
2022/12/19 01:17:33;;;;;;;22.00;13.60;;;;;;;-6.59;98.53;99454.75;107946;1267;59762;-66
2022/12/19 01:20:16;;;;;;;23.70;13.10;;;;;;;-6.63;98.48;99451.09;107935;1263;59668;-66
2022/12/19 01:22:58;;;;;;;26.90;13.70;;;;;;;-6.68;98.50;99449.93;107973;1263;71233;-66
2022/12/19 01:25:31;;;;;;;22.80;12.30;;;;;;;-6.72;98.56;99454.08;107822;1267;68376;-66
2022/12/19 01:28:05;;;;;;;24.80;13.00;;;;;;;-6.74;98.64;99451.64;107724;1266;67536;-66
2022/12/19 01:30:39;;;;;;;29.60;13.10;;;;;;;-6.77;98.57;99449.52;107879;1267;59981;-66
2022/12/19 01:33:14;;;;;;;20.30;12.10;;;;;;;-6.81;98.92;99444.30;107992;1267;59733;-66
2022/12/19 01:35:46;;;;;;;16.70;10.20;;;;;;;-6.84;99.08;99445.92;107823;1263;72008;-67
2022/12/19 01:38:17;;;;;;;24.60;14.30;;;;;;;-6.86;98.75;99446.38;107957;1262;69829;-66
2022/12/19 01:40:55;;;;;;;37.70;17.80;;;;;;;-6.85;98.59;99446.38;107917;1259;67479;-65
2022/12/19 01:43:30;;;;;;;43.50;20.70;;;;;;;-6.84;98.93;99443.88;107808;1267;59737;-65
2022/12/19 01:46:03;;;;;;;30.50;14.90;;;;;;;-6.83;99.39;99446.63;107751;1267;59698;-65
2022/12/19 01:48:37;;;;;;;27.00;14.70;;;;;;;-6.83;98.90;99451.04;107814;1267;70582;-65
2022/12/19 01:51:17;;;;;;;31.90;17.20;;;;;;;-6.83;98.81;99456.46;107818;1266;68567;-65
2022/12/19 01:53:56;;;;;;;43.00;20.90;;;;;;;-6.87;98.75;99458.02;107902;1262;69200;-65
2022/12/19 01:56:33;;;;;;;25.40;14.20;;;;;;;-6.93;98.43;99453.63;107759;1263;60181;-65
2022/12/19 01:59:09;;;;;;;27.10;15.50;;;;;;;-6.97;98.74;99455.20;107694;1262;59671;-65
2022/12/19 02:01:40;;;;;;;28.00;16.30;;;;;;;-7.01;99.17;99450.70;107662;1264;71431;-65
2022/12/19 02:04:27;;;;;;;32.10;15.80;;;;;;;-7.03;99.19;99456.70;107721;1263;69011;-65
2022/12/19 02:07:04;;;;;;;32.10;15.50;;;;;;;-7.08;98.89;99456.05;107799;1267;69620;-65
2022/12/19 02:09:47;;;;;;;39.20;19.60;;;;;;;-7.12;98.90;99456.61;107713;1267;59731;-65
2022/12/19 02:12:33;;;;;;;21.70;12.10;;;;;;;-7.15;98.69;99461.44;107825;1264;59826;-65
2022/12/19 02:15:06;;;;;;;24.40;14.70;;;;;;;-7.16;99.63;99463.12;107795;1263;71596;-65
2022/12/19 02:17:43;;;;;;;25.80;14.20;;;;;;;-7.18;100.00;99467.30;107873;1267;68467;-65
2022/12/19 02:20:57;;;;;;;24.20;13.60;;;;;;;-7.19;99.75;99469.29;107708;1262;69879;-65
2022/12/19 02:23:41;;;;;;;30.20;13.80;;;;;;;-7.22;99.14;99471.23;107647;1267;59769;-65
2022/12/19 02:26:42;;;;;;;29.10;15.20;;;;;;;-7.23;98.82;99469.33;107808;1267;59723;-65
2022/12/19 02:29:36;;;;;;;;;;;;;;;-7.25;98.47;99462.48;107741;1266;71405;-65
2022/12/19 02:32:29;;;;;;;34.90;14.90;;;;;;;-7.25;98.68;99459.46;107815;1262;67424;-65
2022/12/19 02:35:18;;;;;;;40.20;18.00;;;;;;;-7.23;100.00;99452.22;107887;1263;68492;-65
2022/12/19 02:37:52;;;;;;;37.70;17.40;;;;;;;-7.25;100.00;99456.06;107801;1266;59717;-65
2022/12/19 02:40:33;;;;;;;39.20;17.70;;;;;;;-7.28;100.00;99457.48;107672;1263;59733;-65
2022/12/19 02:43:05;;;;;;;39.40;20.60;;;;;;;-7.30;100.00;99457.75;107852;1264;71971;-65
2022/12/19 02:45:38;;;;;;;48.40;20.30;;;;;;;-7.30;100.00;99458.11;107792;1267;69243;-65
2022/12/19 02:48:10;;;;;;;35.10;19.40;;;;;;;-7.30;100.00;99456.27;107932;1263;69174;-65
2022/12/19 02:50:51;;;;;;;34.40;18.60;;;;;;;-7.29;100.00;99456.80;107927;1262;59667;-65
2022/12/19 02:53:22;;;;;;;38.50;19.30;;;;;;;-7.28;100.00;99461.72;107917;1263;59670;-66
2022/12/19 02:56:06;;;;;;;30.10;15.90;;;;;;;-7.28;100.00;99458.69;107751;1263;71484;-66
2022/12/19 02:58:51;;;;;;;37.90;17.40;;;;;;;-7.27;100.00;99459.70;107886;1267;69160;-65
2022/12/19 03:01:49;;;;;;;41.70;19.70;;;;;;;-7.30;99.90;99458.27;107805;1263;69238;-66
2022/12/19 03:04:41;;;;;;;32.70;15.10;;;;;;;-7.36;99.62;99461.48;107749;1267;59707;-66
2022/12/19 03:07:41;;;;;;;36.50;18.70;;;;;;;-7.40;99.84;99457.61;107773;1267;59704;-67
2022/12/19 03:10:32;;;;;;;34.20;17.70;;;;;;;-7.43;100.00;99460.23;107787;1264;71861;-66
2022/12/19 03:13:11;;;;;;;40.20;19.40;;;;;;;-7.47;100.00;99461.66;107725;1263;69190;-64
2022/12/19 03:15:43;;;;;;;50.20;24.50;;;;;;;-7.50;100.00;99463.77;107757;1264;69136;-64
2022/12/19 03:18:14;;;;;;;48.70;23.30;;;;;;;-7.52;100.00;99467.59;107664;1267;60628;-64
2022/12/19 03:20:48;;;;;;;;;;;;;;;-7.52;100.00;99472.00;107889;1263;59703;-65
2022/12/19 03:23:19;;;;;;;43.70;19.60;;;;;;;-7.53;100.00;99476.89;107797;1267;71392;-65
2022/12/19 03:25:56;;;;;;;49.40;22.50;;;;;;;-7.54;100.00;99476.85;107876;1263;68443;-65
2022/12/19 03:28:50;;;;;;;46.40;18.80;;;;;;;-7.53;100.00;99480.09;107785;1259;68455;-64
2022/12/19 03:31:28;;;;;;;31.60;16.30;;;;;;;-7.55;100.00;99484.77;107723;1265;59719;-65
2022/12/19 03:34:02;;;;;;;38.00;18.50;;;;;;;-7.58;100.00;99488.56;107802;1266;59772;-66
2022/12/19 03:36:40;;;;;;;27.60;14.90;;;;;;;-7.60;100.00;99489.50;107696;1266;71367;-65
2022/12/19 03:39:13;;;;;;;25.20;14.50;;;;;;;-7.63;100.00;99487.89;107758;1266;69140;-66
2022/12/19 03:44:37;;;;;;;27.70;11.70;;;;;;;-7.69;99.99;99495.98;107896;1267;59765;-65
2022/12/19 03:47:15;;;;;;;28.10;14.70;;;;;;;-7.71;99.95;99491.71;107864;1266;59686;-65
2022/12/19 03:49:47;;;;;;;38.80;18.60;;;;;;;-7.69;99.62;99490.41;107722;1267;71453;-65
2022/12/19 03:52:33;;;;;;;;;;;;;;;-7.67;99.50;99486.74;107737;1263;68513;-65
2022/12/19 03:55:20;;;;;;;27.00;13.00;;;;;;;-7.65;99.06;99489.33;107836;1264;68918;-65
2022/12/19 03:57:57;;;;;;;44.40;19.80;;;;;;;-7.66;98.62;99488.98;107991;1267;59733;-65
2022/12/19 04:00:28;;;;;;;27.20;12.70;;;;;;;-7.70;98.51;99491.05;107830;1267;59713;-66
2022/12/19 04:03:01;;;;;;;39.40;20.20;;;;;;;-7.75;98.56;99491.58;107892;1267;70323;-66
2022/12/19 04:05:33;;;;;;;34.10;17.50;;;;;;;-7.78;99.08;99491.63;107796;1266;69851;-66
2022/12/19 04:08:06;;;;;;;47.40;20.10;;;;;;;-7.81;99.56;99492.91;107666;1266;69668;-65
2022/12/19 04:11:00;;;;;;;38.90;20.20;;;;;;;-7.85;99.77;99492.93;107789;1263;59662;-65
2022/12/19 04:13:36;;;;;;;32.50;16.70;;;;;;;-7.90;99.39;99494.27;107697;1266;59754;-65
2022/12/19 04:16:15;;;;;;;30.60;14.90;;;;;;;-7.96;99.24;99497.64;107698;1263;71347;-65
2022/12/19 04:18:52;;;;;;;32.40;15.70;;;;;;;-8.00;99.21;99496.46;107891;1266;68487;-65
2022/12/19 04:21:29;;;;;;;23.30;12.90;;;;;;;-8.04;99.44;99498.38;107869;1266;69123;-65
2022/12/19 04:24:08;;;;;;;38.40;20.50;;;;;;;-8.06;99.47;99502.53;107818;1262;59711;-66
2022/12/19 04:26:43;;;;;;;50.40;22.30;;;;;;;-8.03;100.00;99508.56;107810;1263;59671;-65
2022/12/19 04:29:14;;;;;;;38.30;20.80;;;;;;;-8.02;100.00;99508.60;107954;1262;72254;-65
2022/12/19 04:31:45;;;;;;;35.00;18.50;;;;;;;-8.03;100.00;99512.82;107904;1267;69198;-64
2022/12/19 04:34:19;;;;;;;48.20;20.50;;;;;;;-8.06;100.00;99513.36;107883;1267;69238;-66
2022/12/19 04:36:50;;;;;;;38.30;19.10;;;;;;;-8.11;100.00;99517.75;107933;1263;59681;-66
2022/12/19 04:39:19;;;;;;;35.90;16.40;;;;;;;-8.16;100.00;99513.52;107940;1267;59718;-65
2022/12/19 04:41:50;;;;;;;39.40;20.10;;;;;;;-8.22;99.94;99514.68;107804;1266;71294;-65
2022/12/19 04:44:20;;;;;;;29.50;14.30;;;;;;;-8.26;99.91;99518.23;107959;1262;68693;-66
2022/12/19 04:46:50;;;;;;;39.60;17.10;;;;;;;-8.30;99.83;99520.98;107926;1267;70250;-66
2022/12/19 04:49:20;;;;;;;22.30;13.20;;;;;;;-8.31;99.79;99516.54;107863;1266;59703;-66
2022/12/19 04:51:50;;;;;;;37.50;18.80;;;;;;;-8.33;99.77;99517.15;107914;1262;59651;-64
2022/12/19 04:54:20;;;;;;;33.60;16.40;;;;;;;-8.32;100.00;99519.39;107810;1262;71372;-65
2022/12/19 04:56:51;;;;;;;;;;;;;;;-8.32;100.00;99523.98;107860;1266;69210;-66
2022/12/19 04:59:21;;;;;;;25.20;11.50;;;;;;;-8.32;100.00;99522.95;107759;1263;68471;-66
2022/12/19 05:01:50;;;;;;;25.10;13.00;;;;;;;-8.32;99.89;99523.80;107747;1262;59775;-66
2022/12/19 05:04:20;;;;;;;19.70;10.60;;;;;;;-8.28;100.00;99527.31;107828;1262;60035;-66
2022/12/19 05:06:50;;;;;;;42.90;17.70;;;;;;;-8.21;100.00;99526.06;107692;1262;70550;-66
2022/12/19 05:09:20;;;;;;;42.10;17.20;;;;;;;-8.10;100.00;99521.17;107796;1266;69402;-66
2022/12/19 05:11:49;;;;;;;27.80;14.90;;;;;;;-8.02;100.00;99521.98;107695;1266;68239;-66
2022/12/19 05:14:19;;;;;;;25.70;13.60;;;;;;;-7.94;100.00;99526.13;107814;1263;59713;-66
2022/12/19 05:16:48;;;;;;;36.60;17.90;;;;;;;-7.84;100.00;99532.05;107927;1266;59707;-66
2022/12/19 05:19:18;;;;;;;57.20;21.90;;;;;;;-7.76;100.00;99532.34;107987;1263;71631;-66
2022/12/19 05:21:47;;;;;;;33.20;16.40;;;;;;;-7.69;100.00;99538.35;107967;1267;69150;-66
2022/12/19 05:24:17;;;;;;;46.20;26.60;;;;;;;-7.62;100.00;99543.80;107866;1263;69762;-66
2022/12/19 05:26:47;;;;;;;34.50;21.50;;;;;;;-7.57;100.00;99544.82;107908;1263;59786;-66
2022/12/19 05:29:17;;;;;;;39.80;19.50;;;;;;;-7.53;100.00;99546.30;107932;1266;59679;-66
2022/12/19 05:31:46;;;;;;;36.30;17.40;;;;;;;-7.48;100.00;99548.84;107911;1267;71454;-66
2022/12/19 05:34:16;;;;;;;52.30;23.90;;;;;;;-7.44;99.84;99547.77;107979;1263;69253;-66
2022/12/19 05:36:45;;;;;;;51.80;22.70;;;;;;;-7.42;99.40;99548.35;107986;1262;67992;-66
2022/12/19 05:39:15;;;;;;;73.70;27.30;;;;;;;-7.42;98.96;99552.27;107950;1262;59754;-66
2022/12/19 05:41:44;;;;;;;43.20;19.40;;;;;;;-7.40;98.24;99554.69;107940;1267;59693;-66
2022/12/19 05:44:17;;;;;;;38.40;19.60;;;;;;;-7.37;98.79;99554.95;107975;1262;72019;-66
2022/12/19 05:46:46;;;;;;;42.70;21.20;;;;;;;-7.30;99.79;99558.06;107936;1263;69353;-66
2022/12/19 05:49:15;;;;;;;50.40;23.50;;;;;;;-7.24;100.00;99561.81;107766;1267;69235;-66
2022/12/19 05:51:44;;;;;;;49.40;21.10;;;;;;;-7.20;100.00;99560.79;107941;1267;60148;-66
2022/12/19 05:54:13;;;;;;;52.60;22.30;;;;;;;-7.12;100.00;99566.27;107742;1262;59753;-66
2022/12/19 05:56:42;;;;;;;59.30;25.00;;;;;;;-7.07;100.00;99568.31;107789;1266;71401;-66
2022/12/19 05:59:11;;;;;;;51.10;22.60;;;;;;;-7.02;100.00;99571.69;107742;1266;68368;-65
2022/12/19 06:01:41;;;;;;;68.60;28.80;;;;;;;-6.97;100.00;99569.46;107676;1267;69119;-66
2022/12/19 06:04:10;;;;;;;39.90;19.30;;;;;;;-6.91;100.00;99572.70;107803;1263;59709;-67
2022/12/19 06:06:39;;;;;;;56.80;22.10;;;;;;;-6.87;100.00;99576.73;107719;1266;59722;-66
2022/12/19 06:09:07;;;;;;;56.60;24.90;;;;;;;-6.82;100.00;99581.62;107853;1262;70800;-67
2022/12/19 06:11:37;;;;;;;52.20;22.10;;;;;;;-6.76;100.00;99584.20;107770;1263;69135;-67
2022/12/19 06:14:05;;;;;;;62.80;25.00;;;;;;;-6.69;100.00;99584.73;107661;1267;68553;-66
2022/12/19 06:16:35;;;;;;;52.70;25.20;;;;;;;-6.62;100.00;99588.16;107949;1263;59687;-67
2022/12/19 06:19:04;;;;;;;46.60;22.20;;;;;;;-6.56;100.00;99593.44;107861;1266;59741;-66
2022/12/19 06:21:33;;;;;;;68.40;26.70;;;;;;;-6.52;100.00;99600.70;107859;1262;71855;-66
2022/12/19 06:24:02;;;;;;;77.00;30.00;;;;;;;-6.48;100.00;99608.26;107950;1266;69153;-67
2022/12/19 06:26:31;;;;;;;49.70;23.90;;;;;;;-6.44;100.00;99610.78;107953;1266;69253;-67
2022/12/19 06:29:00;;;;;;;51.50;24.20;;;;;;;-6.37;100.00;99613.17;107841;1265;59756;-66
2022/12/19 06:31:29;;;;;;;51.40;23.10;;;;;;;-6.32;100.00;99610.45;107926;1266;59739;-66
2022/12/19 06:33:59;;;;;;;56.00;23.60;;;;;;;-6.28;100.00;99610.38;107844;1263;72374;-66
2022/12/19 06:36:30;;;;;;;67.10;25.00;;;;;;;-6.27;100.00;99610.42;107923;1266;68250;-67
2022/12/19 06:38:58;;;;;;;49.80;22.90;;;;;;;-6.27;100.00;99612.61;107983;1264;69211;-66
2022/12/19 06:44:16;;;;;;;84.30;27.40;;;;;;;-6.26;100.00;99613.84;107997;1263;59700;-67
2022/12/19 06:46:45;;;;;;;66.80;26.70;;;;;;;-6.22;100.00;99617.04;108061;1263;71442;-67
2022/12/19 06:49:15;;;;;;;55.30;24.20;;;;;;;-6.19;100.00;99614.91;108054;1262;68439;-67
2022/12/19 06:51:45;;;;;;;65.60;26.50;;;;;;;-6.17;100.00;99620.22;107944;1263;67566;-67
2022/12/19 06:54:14;;;;;;;73.50;25.80;;;;;;;-6.18;100.00;99616.62;108000;1263;59786;-67
2022/12/19 06:56:43;;;;;;;83.40;29.00;;;;;;;-6.17;100.00;99616.48;108096;1263;59768;-68
2022/12/19 06:59:14;;;;;;;102.80;30.20;;;;;;;-6.17;100.00;99617.66;108091;1260;71407;-67
2022/12/19 07:01:49;;;;;;;118.20;31.30;;;;;;;-6.15;100.00;99618.08;108097;1257;69182;-67
2022/12/19 07:04:25;;;;;;;50.60;21.30;;;;;;;-6.19;100.00;99618.80;108030;1261;69255;-66
2022/12/19 07:06:54;;;;;;;83.00;27.10;;;;;;;-6.17;100.00;99621.74;108112;1264;59757;-66
2022/12/19 07:09:25;;;;;;;44.60;20.00;;;;;;;-6.12;100.00;99627.30;107959;1263;59792;-67
2022/12/19 07:11:54;;;;;;;113.50;28.30;;;;;;;-6.09;100.00;99631.65;108013;1265;71591;-67
2022/12/19 07:14:23;;;;;;;53.50;22.90;;;;;;;-6.08;100.00;99628.79;107827;1262;69213;-67
2022/12/19 07:16:54;;;;;;;76.30;27.10;;;;;;;-6.06;100.00;99631.92;108038;1267;69565;-66
2022/12/19 07:19:24;;;;;;;48.80;24.50;;;;;;;-6.02;100.00;99640.16;107744;1267;59742;-66
2022/12/19 07:21:54;;;;;;;61.80;27.50;;;;;;;-5.96;100.00;99640.84;108071;1262;59723;-66
2022/12/19 07:24:23;;;;;;;62.60;27.90;;;;;;;-5.97;100.00;99644.04;107999;1263;71386;-67
2022/12/19 07:26:52;;;;;;;61.30;25.70;;;;;;;-5.99;100.00;99645.00;108052;1265;69838;-66
2022/12/19 07:29:20;;;;;;;47.70;20.40;;;;;;;-6.00;100.00;99647.35;108078;1262;69171;-66
2022/12/19 07:31:49;;;;;;;41.50;20.10;;;;;;;-5.98;100.00;99644.18;108123;1267;59714;-67
2022/12/19 07:34:18;;;;;;;52.20;23.20;;;;;;;-5.96;100.00;99648.14;107996;1267;59690;-67
2022/12/19 07:36:47;;;;;;;43.10;22.40;;;;;;;-5.90;100.00;99646.94;108053;1267;70275;-67
2022/12/19 07:39:19;;;;;;;41.30;20.40;;;;;;;-5.82;100.00;99641.73;107942;1260;70119;-65
2022/12/19 07:41:47;;;;;;;46.30;22.00;;;;;;;-5.79;100.00;99637.40;108078;1256;69336;-65
2022/12/19 07:44:21;;;;;;;46.30;21.70;;;;;;;-5.70;100.00;99630.67;107842;1262;59771;-66
2022/12/19 07:46:50;;;;;;;53.10;24.30;;;;;;;-5.59;100.00;99628.75;107999;1263;59728;-67
2022/12/19 07:49:19;;;;;;;44.70;20.30;;;;;;;-5.45;100.00;99627.25;107732;1266;70701;-67
2022/12/19 07:51:50;;;;;;;36.90;16.60;;;;;;;-5.38;100.00;99626.77;107713;1263;69813;-66
2022/12/19 07:54:19;;;;;;;33.60;18.10;;;;;;;-5.27;100.00;99628.59;107848;1263;69256;-66
2022/12/19 07:56:48;;;;;;;30.40;16.40;;;;;;;-5.19;100.00;99629.13;107950;1267;59725;-66
2022/12/19 07:59:17;;;;;;;38.20;18.90;;;;;;;-5.11;100.00;99628.46;108006;1257;59710;-66
2022/12/19 08:01:52;;;;;;;28.70;14.70;;;;;;;-4.98;100.00;99629.64;107933;1262;72117;-66
2022/12/19 08:04:21;;;;;;;36.30;18.00;;;;;;;-4.84;100.00;99625.57;108042;1262;68661;-66
2022/12/19 08:06:51;;;;;;;30.90;16.50;;;;;;;-4.83;99.97;99623.21;108022;1257;69213;-66
2022/12/19 08:09:19;;;;;;;35.30;18.90;;;;;;;-4.83;99.64;99619.46;108051;1266;59771;-66
2022/12/19 08:11:48;;;;;;;33.30;19.00;;;;;;;-4.81;98.90;99620.52;107985;1263;59700;-66
2022/12/19 08:14:18;;;;;;;39.20;20.40;;;;;;;-4.78;98.33;99617.89;107853;1262;71631;-66
2022/12/19 08:16:46;;;;;;;41.20;21.30;;;;;;;-4.70;98.32;99615.52;107990;1265;68372;-66
2022/12/19 08:19:35;;;;;;;47.70;22.30;;;;;;;-4.56;98.93;99621.79;107961;1265;69620;-66
2022/12/19 08:22:04;;;;;;;43.70;21.60;;;;;;;-4.48;98.15;99622.81;108029;1257;59749;-66
2022/12/19 08:24:33;;;;;;;47.60;22.50;;;;;;;-4.20;98.60;99620.21;107961;1262;59720;-66
2022/12/19 08:27:02;;;;;;;42.30;21.70;;;;;;;-3.85;97.79;99616.98;107976;1267;70377;-66
2022/12/19 08:29:31;;;;;;;36.00;18.30;;;;;;;-3.25;95.34;99617.77;108144;1265;68472;-66
2022/12/19 08:31:59;;;;;;;28.70;15.90;;;;;;;-2.38;95.00;99615.91;108003;1263;67577;-67
2022/12/19 08:34:28;;;;;;;34.80;18.10;;;;;;;-1.45;91.82;99614.33;108006;1260;59783;-67
2022/12/19 08:36:57;;;;;;;28.80;17.10;;;;;;;-0.81;82.78;99613.02;107986;1265;59717;-67
2022/12/19 08:39:26;;;;;;;32.40;17.70;;;;;;;-0.53;76.17;99612.39;108114;1263;72067;-66
2022/12/19 08:41:55;;;;;;;29.30;18.10;;;;;;;0.27;76.93;99610.55;108012;1263;69759;-67
2022/12/19 08:44:24;;;;;;;30.50;18.30;;;;;;;0.90;75.19;99604.35;107939;1267;69738;-67
2022/12/19 08:46:54;;;;;;;31.90;19.00;;;;;;;1.41;68.44;99604.35;107952;1263;59835;-67
2022/12/19 08:49:22;;;;;;;31.80;19.00;;;;;;;1.93;67.92;99601.31;107973;1265;59722;-67
2022/12/19 08:51:51;;;;;;;28.60;18.60;;;;;;;2.35;65.40;99598.05;108007;1267;69568;-68
2022/12/19 08:54:20;;;;;;;27.90;17.70;;;;;;;2.86;62.26;99606.02;107971;1267;68272;-67
2022/12/19 08:56:49;;;;;;;27.10;17.50;;;;;;;2.95;61.72;99606.48;107961;1266;69875;-67
2022/12/19 08:59:18;;;;;;;27.50;18.10;;;;;;;3.65;59.62;99606.21;107987;1263;59682;-68
2022/12/19 09:02:00;;;;;;;27.00;17.50;;;;;;;3.17;59.18;99614.40;107992;1260;60139;-66
2022/12/19 09:06:48;;;;;;;26.70;18.20;;;;;;;3.98;59.59;99605.15;104549;1301;596917;-67
2022/12/19 09:09:17;;;;;;;25.10;16.90;;;;;;;4.25;56.89;99603.66;106969;1274;58108;-67
2022/12/19 09:11:48;;;;;;;26.30;17.00;;;;;;;4.31;56.42;99600.13;106997;1279;57674;-67
2022/12/19 09:14:17;;;;;;;24.70;17.20;;;;;;;4.53;56.39;99600.52;107035;1274;68962;-68
2022/12/19 09:16:48;;;;;;;23.50;17.60;;;;;;;4.40;56.04;99600.88;106893;1275;69837;-69
2022/12/19 09:19:17;;;;;;;26.10;18.40;;;;;;;4.98;55.82;99600.05;106464;1279;729903;-67
2022/12/19 09:21:47;;;;;;;25.80;17.30;;;;;;;4.92;54.63;99597.88;107329;1275;57691;-67
2022/12/19 09:24:16;;;;;;;24.70;17.50;;;;;;;4.80;53.64;99594.78;107298;1275;57652;-69
2022/12/19 09:26:45;;;;;;;24.60;16.00;;;;;;;4.97;53.24;99592.98;107344;1275;67932;-68
2022/12/19 09:29:14;;;;;;;22.50;15.50;;;;;;;5.25;53.58;99590.95;107705;1269;68930;-67
2022/12/19 09:31:49;;;;;;;20.80;14.40;;;;;;;6.05;50.81;99586.94;107631;1269;69988;-67
2022/12/19 09:34:28;;;;;;;21.40;14.80;;;;;;;6.51;50.79;99585.13;107715;1266;58101;-67
2022/12/19 09:37:08;;;;;;;21.90;14.30;;;;;;;6.72;49.25;99582.92;107700;1265;58107;-67
2022/12/19 09:39:47;;;;;;;22.30;15.90;;;;;;;6.98;49.58;99575.55;107656;1266;70410;-69
2022/12/19 09:42:55;;;;;;;21.10;15.90;;;;;;;6.72;49.79;99576.48;107684;1265;69859;-67
2022/12/19 09:45:47;;;;;;;25.10;16.00;;;;;;;6.32;50.38;99576.17;107690;1269;69679;-68
2022/12/19 09:48:18;;;;;;;21.80;15.60;;;;;;;6.46;50.73;99576.05;107681;1269;58158;-68
2022/12/19 09:51:30;;;;;;;20.50;14.80;;;;;;;6.59;50.17;99567.61;107620;1269;58107;-67
2022/12/19 09:54:22;;;;;;;22.60;15.00;;;;;;;7.44;49.62;99565.02;107449;1269;70458;-67
2022/12/19 09:56:57;;;;;;;21.70;16.20;;;;;;;7.83;46.97;99560.02;107672;1265;68192;-67
2022/12/19 09:59:42;;;;;;;24.50;16.10;;;;;;;7.50;47.10;99557.79;107633;1269;68284;-67
2022/12/19 10:02:47;;;;;;;21.50;15.10;;;;;;;7.41;47.64;99555.77;107698;1269;58178;-67
2022/12/19 10:05:31;;;;;;;23.20;15.50;;;;;;;7.70;48.60;99549.17;107717;1265;58548;-66
2022/12/19 10:08:30;;;;;;;21.90;15.10;;;;;;;8.10;46.11;99547.79;107639;1269;70454;-66
2022/12/19 10:11:14;;;;;;;19.90;15.60;;;;;;;7.00;48.41;99544.29;107685;1269;69006;-66
2022/12/19 10:14:18;;;;;;;21.00;15.60;;;;;;;8.04;46.16;99537.54;107662;1265;69723;-66
2022/12/19 10:16:58;;;;;;;22.60;15.10;;;;;;;8.63;44.61;99537.00;107692;1265;58140;-67
2022/12/19 10:20:09;;;;;;;21.00;15.40;;;;;;;8.76;43.79;99536.10;107662;1265;58122;-68
2022/12/19 10:23:00;;;;;;;21.50;15.90;;;;;;;9.65;44.20;99536.79;107681;1265;69745;-67
2022/12/19 10:26:08;;;;;;;21.50;15.30;;;;;;;9.20;43.70;99539.68;107686;1269;69820;-67
2022/12/19 10:28:37;;;;;;;22.70;16.00;;;;;;;9.18;42.85;99532.30;107797;1269;69886;-67
2022/12/19 10:31:18;;;;;;;22.20;15.60;;;;;;;9.41;42.84;99532.73;107692;1269;58356;-67
2022/12/19 10:34:01;;;;;;;22.20;16.00;;;;;;;8.46;44.54;99526.20;107674;1269;58132;-67
2022/12/19 10:36:41;;;;;;;22.00;16.80;;;;;;;8.58;43.90;99529.34;107664;1265;70260;-68
2022/12/19 10:39:52;;;;;;;28.30;20.80;;;;;;;9.01;43.49;99527.96;107674;1269;69853;-67
2022/12/19 10:42:58;;;;;;;26.70;19.70;;;;;;;8.60;43.42;99526.92;107654;1265;68723;-67
2022/12/19 10:45:44;;;;;;;26.00;18.90;;;;;;;7.80;45.07;99524.16;107670;1269;58099;-68
2022/12/19 10:48:21;;;;;;;23.90;17.40;;;;;;;8.36;44.30;99521.65;107635;1266;58127;-68
2022/12/19 10:50:58;;;;;;;22.50;16.60;;;;;;;9.07;43.44;99517.18;107673;1269;69738;-68
2022/12/19 10:53:34;;;;;;;21.40;15.50;;;;;;;8.42;43.08;99518.35;107694;1269;69795;-68
2022/12/19 10:56:21;;;;;;;22.90;17.20;;;;;;;9.88;42.84;99520.11;107701;1262;68644;-66
2022/12/19 10:58:57;;;;;;;19.30;15.60;;;;;;;10.18;40.97;99513.73;107711;1269;58165;-66
2022/12/19 11:01:34;;;;;;;25.20;18.80;;;;;;;9.39;41.22;99507.02;107672;1269;58090;-66
2022/12/19 11:04:35;;;;;;;25.40;18.20;;;;;;;9.28;41.01;99505.16;107712;1262;70217;-66
2022/12/19 11:07:04;;;;;;;25.00;17.00;;;;;;;8.47;42.33;99506.73;107715;1265;68200;-67
2022/12/19 11:09:42;;;;;;;21.10;15.20;;;;;;;9.00;41.99;99504.38;107674;1269;69781;-67
2022/12/19 11:12:31;;;;;;;25.90;17.50;;;;;;;8.77;41.34;99508.77;107660;1269;58144;-68
2022/12/19 11:15:22;;;;;;;20.70;15.00;;;;;;;9.14;40.45;99507.22;107654;1265;58151;-68
2022/12/19 11:18:11;;;;;;;22.80;16.30;;;;;;;9.01;41.22;99506.09;107669;1266;69226;-68
2022/12/19 11:21:03;;;;;;;23.10;16.20;;;;;;;9.14;40.57;99508.77;107705;1269;69785;-68
2022/12/19 11:23:58;;;;;;;22.50;16.30;;;;;;;8.50;41.23;99511.15;107615;1266;68744;-67
2022/12/19 11:26:51;;;;;;;24.90;17.30;;;;;;;8.96;39.90;99506.06;107657;1269;58153;-67
2022/12/19 11:29:45;;;;;;;19.90;14.60;;;;;;;8.67;40.47;99507.33;107700;1265;58093;-68
2022/12/19 11:32:38;;;;;;;19.50;14.50;;;;;;;9.13;40.23;99508.64;107707;1269;69964;-68
2022/12/19 11:35:23;;;;;;;22.40;16.20;;;;;;;9.28;39.48;99508.29;107726;1269;69243;-68
2022/12/19 11:38:07;;;;;;;19.60;15.10;;;;;;;8.97;39.09;99506.19;107692;1269;69380;-68
2022/12/19 11:40:41;;;;;;;22.20;16.40;;;;;;;9.34;39.66;99505.10;107641;1269;58085;-67
2022/12/19 11:43:47;;;;;;;18.90;14.00;;;;;;;9.78;38.57;99503.05;107649;1269;58093;-67
2022/12/19 11:46:44;;;;;;;24.10;15.60;;;;;;;9.60;39.27;99505.05;107678;1269;69765;-68
2022/12/19 11:49:36;;;;;;;22.70;16.50;;;;;;;10.27;38.55;99505.40;107700;1269;69250;-68
2022/12/19 11:52:14;;;;;;;16.40;12.10;;;;;;;9.82;38.43;99499.93;107698;1266;69776;-67
2022/12/19 11:55:15;;;;;;;24.70;17.80;;;;;;;11.07;38.28;99494.21;107693;1269;58220;-68
2022/12/19 11:57:46;;;;;;;19.40;13.80;;;;;;;11.88;37.46;99492.98;107711;1269;58056;-67
2022/12/19 12:00:23;;;;;;;22.80;16.90;;;;;;;12.30;36.86;99487.02;107686;1266;69705;-68